ADDS TAF Board (Experimental) INFO Settings
IDs: Format: Expanded Condensed

KDEN - Denver Intl, CO, US

Issued at 2058 UTC 27 May 2015
Updated at: 2149 UTC 27 May 2015
Time2113Z 27/22Z 27/23Z 28/00Z 28/01Z 28/02Z 28/03Z 28/04Z 28/05Z 28/06Z 28/07Z 28/08Z 28/09Z 28/10Z
Type OBS PRVL
  [TEMP]  
PRVL
  [TEMP]  
PRVL PRVL PRVL PRVL PRVL PRVL PRVL PRVL PRVL PRVL PRVL
VIS 10 >6
  [6.21]  
>6
  [6.21]  
>6 >6 >6 >6 >6 >6 >6 >6 >6 >6 >6
CIG -- --
  [60]  
--
  [60]  
-- -- 150 150 150 150 -- -- -- -- --
Cover SCT SCT
  [BKN]  
SCT
  [BKN]  
SCT SCT BKN BKN BKN BKN SCT SCT SCT SCT SCT
FltCat VFR VFR
  [VFR]  
VFR
  [VFR]  
VFR VFR VFR VFR VFR VFR VFR VFR VFR VFR VFR
WX -- VCTS
  [-TSRA]  
VCTS
  [-TSRA]  
VCTS VCTS -- -- -- -- -- -- -- -- --
WDir 10 VRB
[VRB]
VRB
[VRB]
VRB VRB 170 170 170 170 210 210 210 210 210
WSpd 6 6
  [20]  
6
  [20]  
6 6 10 10 10 10 8 8 8 8 8
WGst -- --
  [30]  
--
  [30]  
-- -- -- -- -- -- -- -- -- -- --
R07/25
XWnd 6 6 6 VRB VRB -10 -10 -10 -10 -7 -7 -7 -7 -7
XGst -- 0 0 -- -- -- -- -- -- -- -- -- -- --
HWnd 1 0 0 VRB VRB 2 2 2 2 -4 -4 -4 -4 -4
HGst -- 0 0 -- -- -- -- -- -- -- -- -- -- --
R08/26
XWnd 6 6 6 VRB VRB -10 -10 -10 -10 -7 -7 -7 -7 -7
XGst -- 0 0 -- -- -- -- -- -- -- -- -- -- --
HWnd 1 -0 -0 VRB VRB 2 2 2 2 -4 -4 -4 -4 -4
HGst -- 0 0 -- -- -- -- -- -- -- -- -- -- --
R16/34
XWnd 1 -0 -0 VRB VRB 2 2 2 2 -4 -4 -4 -4 -4
XGst -- 0 0 -- -- -- -- -- -- -- -- -- -- --
HWnd -6 -6 -6 VRB VRB 10 10 10 10 7 7 7 7 7
HGst -- 0 0 -- -- -- -- -- -- -- -- -- -- --
R17/35
XWnd 1 -0 -0 VRB VRB 2 2 2 2 -4 -4 -4 -4 -4
XGst -- 0 0 -- -- -- -- -- -- -- -- -- -- --
HWnd -6 -6 -6 VRB VRB 10 10 10 10 7 7 7 7 7
HGst -- 0 0 -- -- -- -- -- -- -- -- -- -- --

NOTE: TEMPO conditions in [brackets]. Keep in mind TEMPO conditions might be better (lower impact) than prevailing conditions.

Raw TAF
KDEN 272058Z 2721/2824 VRB06KT P6SM VCTS SCT070CB SCT120
  TEMPO 2722/2724 VRB20G30KT P6SM -TSRA BKN060CB
  FM280200 17010KT P6SM SCT080 BKN150
  FM280600 21008KT P6SM FEW100 SCT200
  FM281500 VRB05KT P6SM SCT080 BKN150
  FM282100 11008KT P6SM SCT050 BKN090


Raw METAR
KDEN 272113Z COR 01006KT 10SM FEW100 SCT150 SCT220 24/06 A3003 RMK AO2 VIRGA DSNT E-SW CB DSNT E-SW MOV E T02390056
KDEN 272053Z 35008KT 10SM FEW100 SCT150 SCT220 24/06 A3003 RMK AO2 SLP108 VIRGA DSNT E-SW CB DSNT E-SW MOV E T02390061 58014
KDEN 271953Z 01004KT 10SM FEW100 SCT150 BKN220 23/06 A3005 RMK AO2 SLP114 T02280056
KDEN 271853Z 09007KT 10SM FEW100 SCT150 BKN220 22/07 A3007 RMK AO2 SLP123 VIRGA DSNT SE-S CB DSNT SE-S MOV E T02220072

METAR Board
Radar Display
Forecast Discussion

TAF Board Legend

Potential Impact
Threat None Slight Moderate High
Visibility (sm) ≥5.1 5.1>X≥3 3>X≥1 <1
Ceiling (100 ft) ≥30.1 30.1>X≥10 10>X≥5 <5
Wind Speed (kt) <10 10≤X<20 20≤X<30 ≥30
Wind Gust (kt) <15 15≤X<25 25≤X<35 ≥35
Weather No Wx Reported VCTS,-TS,-FZRA,SN TS,FZRA +TS,+FZRA,+SN